sensor_id;sensor_type;location;lat;lon;timestamp;P1;durP1;ratioP1;P2;durP2;ratioP2
75504;SDS011;64085;54.974;73.410;2023-04-29T00:01:18;5.93;;;4.72;;
75504;SDS011;64085;54.974;73.410;2023-04-29T00:03:44;13.00;;;7.55;;
75504;SDS011;64085;54.974;73.410;2023-04-29T00:06:09;10.55;;;5.45;;
75504;SDS011;64085;54.974;73.410;2023-04-29T00:11:22;8.00;;;4.93;;
75504;SDS011;64085;54.974;73.410;2023-04-29T00:13:51;11.48;;;8.25;;
75504;SDS011;64085;54.974;73.410;2023-04-29T00:16:17;10.82;;;6.93;;
75504;SDS011;64085;54.974;73.410;2023-04-29T00:19:01;9.77;;;7.15;;
75504;SDS011;64085;54.974;73.410;2023-04-29T00:24:22;7.32;;;4.28;;
75504;SDS011;64085;54.974;73.410;2023-04-29T00:26:49;7.80;;;6.03;;
75504;SDS011;64085;54.974;73.410;2023-04-29T00:29:33;6.95;;;5.00;;
75504;SDS011;64085;54.974;73.410;2023-04-29T00:31:59;8.10;;;6.03;;
75504;SDS011;64085;54.974;73.410;2023-04-29T00:34:25;8.55;;;5.82;;
75504;SDS011;64085;54.974;73.410;2023-04-29T00:37:08;9.15;;;6.43;;
75504;SDS011;64085;54.974;73.410;2023-04-29T00:42:26;8.05;;;5.22;;
75504;SDS011;64085;54.974;73.410;2023-04-29T00:45:12;5.78;;;5.05;;
75504;SDS011;64085;54.974;73.410;2023-04-29T00:47:37;8.07;;;5.32;;
75504;SDS011;64085;54.974;73.410;2023-04-29T00:50:06;5.22;;;4.72;;
75504;SDS011;64085;54.974;73.410;2023-04-29T00:52:32;7.45;;;4.93;;
75504;SDS011;64085;54.974;73.410;2023-04-29T00:54:59;7.13;;;5.43;;
75504;SDS011;64085;54.974;73.410;2023-04-29T00:57:25;6.72;;;5.07;;
75504;SDS011;64085;54.974;73.410;2023-04-29T00:59:57;6.63;;;4.82;;
75504;SDS011;64085;54.974;73.410;2023-04-29T01:02:23;8.45;;;6.65;;
75504;SDS011;64085;54.974;73.410;2023-04-29T01:05:08;6.45;;;4.90;;
75504;SDS011;64085;54.974;73.410;2023-04-29T01:10:38;9.30;;;6.22;;
75504;SDS011;64085;54.974;73.410;2023-04-29T01:15:47;13.57;;;6.70;;
75504;SDS011;64085;54.974;73.410;2023-04-29T01:18:40;9.88;;;6.88;;
75504;SDS011;64085;54.974;73.410;2023-04-29T01:21:10;8.15;;;5.18;;
75504;SDS011;64085;54.974;73.410;2023-04-29T01:26:38;9.07;;;6.90;;
75504;SDS011;64085;54.974;73.410;2023-04-29T01:31:43;8.13;;;5.70;;
75504;SDS011;64085;54.974;73.410;2023-04-29T01:37:09;10.93;;;5.22;;
75504;SDS011;64085;54.974;73.410;2023-04-29T01:39:49;6.55;;;5.03;;
75504;SDS011;64085;54.974;73.410;2023-04-29T01:45:37;8.75;;;6.68;;
75504;SDS011;64085;54.974;73.410;2023-04-29T01:48:22;6.57;;;5.07;;
75504;SDS011;64085;54.974;73.410;2023-04-29T01:51:07;6.43;;;4.82;;
75504;SDS011;64085;54.974;73.410;2023-04-29T01:53:32;6.65;;;4.45;;
75504;SDS011;64085;54.974;73.410;2023-04-29T01:55:58;8.27;;;5.28;;
75504;SDS011;64085;54.974;73.410;2023-04-29T01:58:24;9.02;;;5.47;;
75504;SDS011;64085;54.974;73.410;2023-04-29T02:01:08;6.18;;;4.75;;
75504;SDS011;64085;54.974;73.410;2023-04-29T02:03:34;8.32;;;5.70;;
75504;SDS011;64085;54.974;73.410;2023-04-29T02:06:00;6.97;;;5.45;;
75504;SDS011;64085;54.974;73.410;2023-04-29T02:08:44;5.68;;;4.47;;
75504;SDS011;64085;54.974;73.410;2023-04-29T02:11:10;6.88;;;4.95;;
75504;SDS011;64085;54.974;73.410;2023-04-29T02:16:20;7.85;;;5.30;;
75504;SDS011;64085;54.974;73.410;2023-04-29T02:18:46;6.65;;;4.45;;
75504;SDS011;64085;54.974;73.410;2023-04-29T02:21:12;5.45;;;4.40;;
75504;SDS011;64085;54.974;73.410;2023-04-29T02:23:37;5.90;;;4.57;;
75504;SDS011;64085;54.974;73.410;2023-04-29T02:26:03;6.20;;;4.20;;
75504;SDS011;64085;54.974;73.410;2023-04-29T02:31:17;5.25;;;4.25;;
75504;SDS011;64085;54.974;73.410;2023-04-29T02:33:43;7.30;;;4.93;;
75504;SDS011;64085;54.974;73.410;2023-04-29T02:36:09;6.65;;;4.80;;
75504;SDS011;64085;54.974;73.410;2023-04-29T02:38:34;5.70;;;5.20;;
75504;SDS011;64085;54.974;73.410;2023-04-29T02:41:00;6.47;;;4.90;;
75504;SDS011;64085;54.974;73.410;2023-04-29T02:49:50;8.30;;;5.25;;
75504;SDS011;64085;54.974;73.410;2023-04-29T02:52:34;5.38;;;4.05;;
75504;SDS011;64085;54.974;73.410;2023-04-29T02:55:00;4.85;;;4.35;;
75504;SDS011;64085;54.974;73.410;2023-04-29T02:57:25;5.70;;;4.35;;
75504;SDS011;64085;54.974;73.410;2023-04-29T02:59:53;5.00;;;3.75;;
75504;SDS011;64085;54.974;73.410;2023-04-29T03:02:19;3.95;;;2.80;;
75504;SDS011;64085;54.974;73.410;2023-04-29T03:07:47;4.47;;;3.63;;
75504;SDS011;64085;54.974;73.410;2023-04-29T03:10:31;4.57;;;3.65;;
75504;SDS011;64085;54.974;73.410;2023-04-29T03:13:15;3.80;;;3.33;;
75504;SDS011;64085;54.974;73.410;2023-04-29T03:15:41;4.25;;;3.88;;
75504;SDS011;64085;54.974;73.410;2023-04-29T03:18:25;7.35;;;5.38;;
75504;SDS011;64085;54.974;73.410;2023-04-29T03:20:51;6.47;;;5.18;;
75504;SDS011;64085;54.974;73.410;2023-04-29T03:23:35;4.55;;;3.78;;
75504;SDS011;64085;54.974;73.410;2023-04-29T03:26:03;4.03;;;3.10;;
75504;SDS011;64085;54.974;73.410;2023-04-29T03:34:16;6.15;;;3.58;;
75504;SDS011;64085;54.974;73.410;2023-04-29T03:36:42;2.90;;;2.55;;
75504;SDS011;64085;54.974;73.410;2023-04-29T03:39:08;3.65;;;2.97;;
75504;SDS011;64085;54.974;73.410;2023-04-29T03:41:33;4.78;;;2.42;;
75504;SDS011;64085;54.974;73.410;2023-04-29T03:44:18;7.80;;;3.30;;
75504;SDS011;64085;54.974;73.410;2023-04-29T03:46:43;3.75;;;3.00;;
75504;SDS011;64085;54.974;73.410;2023-04-29T03:51:54;4.78;;;3.25;;
75504;SDS011;64085;54.974;73.410;2023-04-29T03:54:19;3.92;;;3.08;;
75504;SDS011;64085;54.974;73.410;2023-04-29T03:56:45;4.72;;;3.60;;
75504;SDS011;64085;54.974;73.410;2023-04-29T03:59:11;4.50;;;3.25;;
75504;SDS011;64085;54.974;73.410;2023-04-29T04:01:55;3.30;;;3.00;;
75504;SDS011;64085;54.974;73.410;2023-04-29T04:04:22;3.45;;;3.15;;
75504;SDS011;64085;54.974;73.410;2023-04-29T04:06:48;8.18;;;3.55;;
75504;SDS011;64085;54.974;73.410;2023-04-29T04:09:16;5.82;;;3.95;;
75504;SDS011;64085;54.974;73.410;2023-04-29T04:14:45;4.18;;;3.58;;
75504;SDS011;64085;54.974;73.410;2023-04-29T04:17:11;3.28;;;2.75;;
75504;SDS011;64085;54.974;73.410;2023-04-29T04:19:37;4.45;;;3.15;;
75504;SDS011;64085;54.974;73.410;2023-04-29T04:22:03;4.68;;;2.95;;
75504;SDS011;64085;54.974;73.410;2023-04-29T04:24:29;5.88;;;2.47;;
75504;SDS011;64085;54.974;73.410;2023-04-29T04:26:54;3.83;;;2.40;;
75504;SDS011;64085;54.974;73.410;2023-04-29T04:32:04;3.00;;;2.75;;
75504;SDS011;64085;54.974;73.410;2023-04-29T04:34:30;7.53;;;4.75;;
75504;SDS011;64085;54.974;73.410;2023-04-29T04:36:56;5.82;;;2.97;;
75504;SDS011;64085;54.974;73.410;2023-04-29T04:39:22;5.00;;;2.80;;
75504;SDS011;64085;54.974;73.410;2023-04-29T04:42:06;7.15;;;5.28;;
75504;SDS011;64085;54.974;73.410;2023-04-29T04:44:31;6.50;;;4.53;;
75504;SDS011;64085;54.974;73.410;2023-04-29T04:47:15;2.83;;;2.63;;
75504;SDS011;64085;54.974;73.410;2023-04-29T04:49:41;4.43;;;3.17;;
75504;SDS011;64085;54.974;73.410;2023-04-29T04:54:52;3.90;;;3.08;;
75504;SDS011;64085;54.974;73.410;2023-04-29T04:57:18;4.70;;;3.53;;
75504;SDS011;64085;54.974;73.410;2023-04-29T04:59:43;5.53;;;3.45;;
75504;SDS011;64085;54.974;73.410;2023-04-29T05:02:09;6.05;;;3.92;;
75504;SDS011;64085;54.974;73.410;2023-04-29T05:04:35;4.35;;;2.85;;
75504;SDS011;64085;54.974;73.410;2023-04-29T05:07:19;7.22;;;5.35;;
75504;SDS011;64085;54.974;73.410;2023-04-29T05:09:44;4.32;;;2.35;;
75504;SDS011;64085;54.974;73.410;2023-04-29T05:12:10;3.65;;;2.65;;
75504;SDS011;64085;54.974;73.410;2023-04-29T05:14:35;7.20;;;4.35;;
75504;SDS011;64085;54.974;73.410;2023-04-29T05:17:01;8.05;;;4.45;;
75504;SDS011;64085;54.974;73.410;2023-04-29T05:22:11;2.60;;;2.20;;
75504;SDS011;64085;54.974;73.410;2023-04-29T05:24:36;4.07;;;2.35;;
75504;SDS011;64085;54.974;73.410;2023-04-29T05:27:02;4.38;;;2.00;;
75504;SDS011;64085;54.974;73.410;2023-04-29T05:29:28;3.70;;;2.38;;
75504;SDS011;64085;54.974;73.410;2023-04-29T05:31:54;2.85;;;2.20;;
75504;SDS011;64085;54.974;73.410;2023-04-29T05:34:20;4.10;;;2.70;;
75504;SDS011;64085;54.974;73.410;2023-04-29T05:36:46;5.20;;;2.92;;
75504;SDS011;64085;54.974;73.410;2023-04-29T05:39:11;3.22;;;2.78;;
75504;SDS011;64085;54.974;73.410;2023-04-29T05:41:37;4.30;;;2.67;;
75504;SDS011;64085;54.974;73.410;2023-04-29T05:46:47;6.55;;;3.05;;
75504;SDS011;64085;54.974;73.410;2023-04-29T05:49:12;2.90;;;2.30;;
75504;SDS011;64085;54.974;73.410;2023-04-29T05:51:39;5.85;;;3.13;;
75504;SDS011;64085;54.974;73.410;2023-04-29T05:54:05;7.32;;;3.47;;
75504;SDS011;64085;54.974;73.410;2023-04-29T05:56:31;3.25;;;2.58;;
75504;SDS011;64085;54.974;73.410;2023-04-29T05:58:56;5.28;;;3.00;;
75504;SDS011;64085;54.974;73.410;2023-04-29T06:01:40;2.90;;;2.55;;
75504;SDS011;64085;54.974;73.410;2023-04-29T06:04:06;2.35;;;1.98;;
75504;SDS011;64085;54.974;73.410;2023-04-29T06:06:32;3.90;;;2.05;;
75504;SDS011;64085;54.974;73.410;2023-04-29T06:09:35;4.20;;;2.72;;
75504;SDS011;64085;54.974;73.410;2023-04-29T06:12:01;6.88;;;2.67;;
75504;SDS011;64085;54.974;73.410;2023-04-29T06:14:27;4.32;;;3.00;;
75504;SDS011;64085;54.974;73.410;2023-04-29T06:16:53;5.30;;;3.15;;
75504;SDS011;64085;54.974;73.410;2023-04-29T06:19:19;2.83;;;2.25;;
75504;SDS011;64085;54.974;73.410;2023-04-29T06:22:03;4.20;;;2.75;;
75504;SDS011;64085;54.974;73.410;2023-04-29T06:24:28;6.25;;;3.80;;
75504;SDS011;64085;54.974;73.410;2023-04-29T06:26:54;4.38;;;3.20;;
75504;SDS011;64085;54.974;73.410;2023-04-29T06:29:20;4.10;;;3.13;;
75504;SDS011;64085;54.974;73.410;2023-04-29T06:31:46;4.15;;;3.67;;
75504;SDS011;64085;54.974;73.410;2023-04-29T06:34:30;7.40;;;3.92;;
75504;SDS011;64085;54.974;73.410;2023-04-29T06:36:56;9.20;;;4.90;;
75504;SDS011;64085;54.974;73.410;2023-04-29T06:39:39;6.78;;;5.63;;
75504;SDS011;64085;54.974;73.410;2023-04-29T06:42:05;8.25;;;5.93;;
75504;SDS011;64085;54.974;73.410;2023-04-29T06:44:31;7.97;;;6.50;;
75504;SDS011;64085;54.974;73.410;2023-04-29T06:46:57;10.82;;;8.20;;
75504;SDS011;64085;54.974;73.410;2023-04-29T06:49:23;11.02;;;8.30;;
75504;SDS011;64085;54.974;73.410;2023-04-29T06:57:36;12.80;;;9.65;;
75504;SDS011;64085;54.974;73.410;2023-04-29T07:00:20;15.77;;;10.05;;
75504;SDS011;64085;54.974;73.410;2023-04-29T07:03:05;15.52;;;10.98;;
75504;SDS011;64085;54.974;73.410;2023-04-29T07:05:30;18.50;;;10.68;;
75504;SDS011;64085;54.974;73.410;2023-04-29T07:07:56;12.35;;;10.43;;
75504;SDS011;64085;54.974;73.410;2023-04-29T07:10:22;14.38;;;11.75;;
75504;SDS011;64085;54.974;73.410;2023-04-29T07:12:48;14.70;;;11.43;;
75504;SDS011;64085;54.974;73.410;2023-04-29T07:15:13;14.48;;;10.40;;
75504;SDS011;64085;54.974;73.410;2023-04-29T07:17:39;14.98;;;9.77;;
75504;SDS011;64085;54.974;73.410;2023-04-29T07:20:23;13.15;;;10.77;;
75504;SDS011;64085;54.974;73.410;2023-04-29T07:25:33;12.77;;;10.50;;
75504;SDS011;64085;54.974;73.410;2023-04-29T07:28:17;11.20;;;8.88;;
75504;SDS011;64085;54.974;73.410;2023-04-29T07:30:43;13.10;;;8.90;;
75504;SDS011;64085;54.974;73.410;2023-04-29T07:33:08;15.52;;;10.13;;
75504;SDS011;64085;54.974;73.410;2023-04-29T07:35:52;14.45;;;9.88;;
75504;SDS011;64085;54.974;73.410;2023-04-29T07:38:18;11.40;;;8.90;;
75504;SDS011;64085;54.974;73.410;2023-04-29T07:40:45;15.57;;;10.10;;
75504;SDS011;64085;54.974;73.410;2023-04-29T07:43:11;10.60;;;9.25;;
75504;SDS011;64085;54.974;73.410;2023-04-29T07:45:55;11.77;;;8.15;;
75504;SDS011;64085;54.974;73.410;2023-04-29T07:48:20;9.57;;;8.52;;
75504;SDS011;64085;54.974;73.410;2023-04-29T07:50:46;13.00;;;9.07;;
75504;SDS011;64085;54.974;73.410;2023-04-29T07:53:12;14.13;;;9.00;;
75504;SDS011;64085;54.974;73.410;2023-04-29T07:55:39;10.75;;;7.70;;
75504;SDS011;64085;54.974;73.410;2023-04-29T07:58:23;9.70;;;7.90;;
75504;SDS011;64085;54.974;73.410;2023-04-29T08:00:49;13.88;;;7.88;;
75504;SDS011;64085;54.974;73.410;2023-04-29T08:03:15;10.43;;;7.90;;
75504;SDS011;64085;54.974;73.410;2023-04-29T08:05:40;11.23;;;8.45;;
75504;SDS011;64085;54.974;73.410;2023-04-29T08:08:07;8.02;;;5.90;;
75504;SDS011;64085;54.974;73.410;2023-04-29T08:10:51;6.72;;;5.50;;
75504;SDS011;64085;54.974;73.410;2023-04-29T08:13:16;9.93;;;5.10;;
75504;SDS011;64085;54.974;73.410;2023-04-29T08:15:42;7.72;;;5.03;;
75504;SDS011;64085;54.974;73.410;2023-04-29T08:18:08;5.88;;;4.07;;
75504;SDS011;64085;54.974;73.410;2023-04-29T08:20:33;5.40;;;4.68;;
75504;SDS011;64085;54.974;73.410;2023-04-29T08:22:59;8.27;;;4.22;;
75504;SDS011;64085;54.974;73.410;2023-04-29T08:25:25;6.97;;;5.05;;
75504;SDS011;64085;54.974;73.410;2023-04-29T08:28:09;8.32;;;4.93;;
75504;SDS011;64085;54.974;73.410;2023-04-29T08:30:41;7.32;;;4.47;;
75504;SDS011;64085;54.974;73.410;2023-04-29T08:33:26;5.55;;;4.35;;
75504;SDS011;64085;54.974;73.410;2023-04-29T08:38:37;7.28;;;4.85;;
75504;SDS011;64085;54.974;73.410;2023-04-29T08:41:21;8.25;;;4.50;;
75504;SDS011;64085;54.974;73.410;2023-04-29T08:43:47;8.48;;;5.68;;
75504;SDS011;64085;54.974;73.410;2023-04-29T08:46:13;13.30;;;6.15;;
75504;SDS011;64085;54.974;73.410;2023-04-29T08:48:39;10.25;;;5.22;;
75504;SDS011;64085;54.974;73.410;2023-04-29T08:51:05;7.35;;;5.50;;
75504;SDS011;64085;54.974;73.410;2023-04-29T08:53:31;12.15;;;6.15;;
75504;SDS011;64085;54.974;73.410;2023-04-29T08:55:57;8.88;;;6.65;;
75504;SDS011;64085;54.974;73.410;2023-04-29T08:58:27;8.52;;;5.85;;
75504;SDS011;64085;54.974;73.410;2023-04-29T09:00:56;13.38;;;6.85;;
75504;SDS011;64085;54.974;73.410;2023-04-29T09:08:34;11.40;;;8.35;;
75504;SDS011;64085;54.974;73.410;2023-04-29T09:11:01;20.15;;;10.27;;
75504;SDS011;64085;54.974;73.410;2023-04-29T09:13:29;17.35;;;11.30;;
75504;SDS011;64085;54.974;73.410;2023-04-29T09:15:56;17.63;;;10.60;;
75504;SDS011;64085;54.974;73.410;2023-04-29T09:21:21;18.13;;;11.50;;
75504;SDS011;64085;54.974;73.410;2023-04-29T09:23:51;12.38;;;9.43;;
75504;SDS011;64085;54.974;73.410;2023-04-29T09:26:19;10.80;;;8.43;;
75504;SDS011;64085;54.974;73.410;2023-04-29T09:28:46;14.15;;;11.02;;
75504;SDS011;64085;54.974;73.410;2023-04-29T09:31:13;17.15;;;11.45;;
75504;SDS011;64085;54.974;73.410;2023-04-29T09:36:36;14.35;;;10.40;;
75504;SDS011;64085;54.974;73.410;2023-04-29T09:39:02;14.98;;;8.57;;
75504;SDS011;64085;54.974;73.410;2023-04-29T09:41:36;11.70;;;8.23;;
75504;SDS011;64085;54.974;73.410;2023-04-29T09:44:03;15.43;;;7.82;;
75504;SDS011;64085;54.974;73.410;2023-04-29T09:46:33;7.97;;;6.50;;
75504;SDS011;64085;54.974;73.410;2023-04-29T09:49:01;10.50;;;6.20;;
75504;SDS011;64085;54.974;73.410;2023-04-29T09:51:28;15.02;;;7.65;;
75504;SDS011;64085;54.974;73.410;2023-04-29T09:53:57;12.82;;;7.03;;
75504;SDS011;64085;54.974;73.410;2023-04-29T09:56:24;8.50;;;7.05;;
75504;SDS011;64085;54.974;73.410;2023-04-29T09:58:54;15.25;;;7.88;;
75504;SDS011;64085;54.974;73.410;2023-04-29T10:01:21;9.07;;;5.20;;
75504;SDS011;64085;54.974;73.410;2023-04-29T10:03:49;12.45;;;6.10;;
75504;SDS011;64085;54.974;73.410;2023-04-29T10:06:18;12.00;;;6.93;;
75504;SDS011;64085;54.974;73.410;2023-04-29T10:08:45;11.00;;;5.75;;
75504;SDS011;64085;54.974;73.410;2023-04-29T10:11:12;8.85;;;5.00;;
75504;SDS011;64085;54.974;73.410;2023-04-29T10:13:41;12.23;;;5.88;;
75504;SDS011;64085;54.974;73.410;2023-04-29T10:18:36;7.28;;;4.05;;
75504;SDS011;64085;54.974;73.410;2023-04-29T10:21:06;8.63;;;4.85;;
75504;SDS011;64085;54.974;73.410;2023-04-29T10:23:36;6.82;;;3.97;;
75504;SDS011;64085;54.974;73.410;2023-04-29T10:26:03;11.25;;;5.13;;
75504;SDS011;64085;54.974;73.410;2023-04-29T10:28:31;8.73;;;4.55;;
75504;SDS011;64085;54.974;73.410;2023-04-29T10:31:01;5.40;;;3.92;;
75504;SDS011;64085;54.974;73.410;2023-04-29T10:33:31;5.45;;;3.92;;
75504;SDS011;64085;54.974;73.410;2023-04-29T10:40:58;7.80;;;5.15;;
75504;SDS011;64085;54.974;73.410;2023-04-29T10:43:28;6.97;;;4.82;;
75504;SDS011;64085;54.974;73.410;2023-04-29T10:48:47;15.32;;;7.40;;
75504;SDS011;64085;54.974;73.410;2023-04-29T10:51:33;9.35;;;7.47;;
75504;SDS011;64085;54.974;73.410;2023-04-29T10:54:07;11.93;;;7.15;;
75504;SDS011;64085;54.974;73.410;2023-04-29T10:59:19;9.05;;;7.15;;
75504;SDS011;64085;54.974;73.410;2023-04-29T11:04:16;11.80;;;8.27;;
75504;SDS011;64085;54.974;73.410;2023-04-29T11:06:55;15.32;;;9.20;;
75504;SDS011;64085;54.974;73.410;2023-04-29T11:14:25;14.82;;;10.85;;
75504;SDS011;64085;54.974;73.410;2023-04-29T11:16:58;15.35;;;11.55;;
75504;SDS011;64085;54.974;73.410;2023-04-29T11:19:42;16.40;;;11.15;;
75504;SDS011;64085;54.974;73.410;2023-04-29T11:22:14;15.15;;;10.75;;
75504;SDS011;64085;54.974;73.410;2023-04-29T11:24:49;13.68;;;10.48;;
75504;SDS011;64085;54.974;73.410;2023-04-29T11:27:16;17.67;;;13.25;;
75504;SDS011;64085;54.974;73.410;2023-04-29T11:29:44;21.00;;;15.38;;
75504;SDS011;64085;54.974;73.410;2023-04-29T11:32:13;21.42;;;15.77;;
75504;SDS011;64085;54.974;73.410;2023-04-29T11:34:39;21.85;;;17.08;;
75504;SDS011;64085;54.974;73.410;2023-04-29T11:37:05;18.23;;;13.93;;
75504;SDS011;64085;54.974;73.410;2023-04-29T11:39:34;21.75;;;17.30;;
75504;SDS011;64085;54.974;73.410;2023-04-29T11:42:04;27.25;;;19.88;;
75504;SDS011;64085;54.974;73.410;2023-04-29T11:44:32;29.05;;;24.40;;
75504;SDS011;64085;54.974;73.410;2023-04-29T11:47:05;29.98;;;24.38;;
75504;SDS011;64085;54.974;73.410;2023-04-29T11:49:32;28.50;;;23.60;;
75504;SDS011;64085;54.974;73.410;2023-04-29T11:51:59;30.48;;;23.85;;
75504;SDS011;64085;54.974;73.410;2023-04-29T11:54:25;33.05;;;28.77;;
75504;SDS011;64085;54.974;73.410;2023-04-29T11:56:52;38.70;;;28.80;;
75504;SDS011;64085;54.974;73.410;2023-04-29T11:59:22;46.25;;;32.05;;
75504;SDS011;64085;54.974;73.410;2023-04-29T12:01:48;35.60;;;27.98;;
75504;SDS011;64085;54.974;73.410;2023-04-29T12:04:14;39.72;;;32.58;;
75504;SDS011;64085;54.974;73.410;2023-04-29T12:06:40;37.35;;;28.65;;
75504;SDS011;64085;54.974;73.410;2023-04-29T12:09:06;39.83;;;30.83;;
75504;SDS011;64085;54.974;73.410;2023-04-29T12:11:33;42.50;;;33.20;;
75504;SDS011;64085;54.974;73.410;2023-04-29T12:13:59;38.95;;;34.58;;
75504;SDS011;64085;54.974;73.410;2023-04-29T12:16:33;43.35;;;31.88;;
75504;SDS011;64085;54.974;73.410;2023-04-29T12:18:59;42.00;;;35.20;;
75504;SDS011;64085;54.974;73.410;2023-04-29T12:21:27;42.35;;;32.92;;
75504;SDS011;64085;54.974;73.410;2023-04-29T12:23:52;45.97;;;35.70;;
75504;SDS011;64085;54.974;73.410;2023-04-29T12:26:18;48.75;;;34.45;;
75504;SDS011;64085;54.974;73.410;2023-04-29T12:28:52;39.22;;;32.65;;
75504;SDS011;64085;54.974;73.410;2023-04-29T12:31:19;51.95;;;37.55;;
75504;SDS011;64085;54.974;73.410;2023-04-29T12:33:45;42.20;;;37.28;;
75504;SDS011;64085;54.974;73.410;2023-04-29T12:36:17;47.05;;;37.90;;
75504;SDS011;64085;54.974;73.410;2023-04-29T12:38:43;47.63;;;37.60;;
75504;SDS011;64085;54.974;73.410;2023-04-29T12:41:09;49.42;;;38.13;;
75504;SDS011;64085;54.974;73.410;2023-04-29T12:43:38;53.00;;;40.10;;
75504;SDS011;64085;54.974;73.410;2023-04-29T12:46:06;53.33;;;37.47;;
75504;SDS011;64085;54.974;73.410;2023-04-29T12:48:34;42.05;;;34.40;;
75504;SDS011;64085;54.974;73.410;2023-04-29T12:51:10;40.05;;;33.53;;
75504;SDS011;64085;54.974;73.410;2023-04-29T12:53:36;42.67;;;30.10;;
75504;SDS011;64085;54.974;73.410;2023-04-29T12:56:03;42.72;;;30.20;;
75504;SDS011;64085;54.974;73.410;2023-04-29T12:58:30;38.22;;;28.38;;
75504;SDS011;64085;54.974;73.410;2023-04-29T13:00:59;41.47;;;32.58;;
75504;SDS011;64085;54.974;73.410;2023-04-29T13:03:25;40.00;;;32.90;;
75504;SDS011;64085;54.974;73.410;2023-04-29T13:05:51;43.17;;;31.88;;
75504;SDS011;64085;54.974;73.410;2023-04-29T13:08:18;47.13;;;30.73;;
75504;SDS011;64085;54.974;73.410;2023-04-29T13:10:45;38.85;;;29.10;;
75504;SDS011;64085;54.974;73.410;2023-04-29T13:13:10;29.90;;;23.90;;
75504;SDS011;64085;54.974;73.410;2023-04-29T13:15:36;39.08;;;28.55;;
75504;SDS011;64085;54.974;73.410;2023-04-29T13:18:05;28.13;;;22.50;;
75504;SDS011;64085;54.974;73.410;2023-04-29T13:20:31;33.72;;;27.20;;
75504;SDS011;64085;54.974;73.410;2023-04-29T13:22:57;36.03;;;25.13;;
75504;SDS011;64085;54.974;73.410;2023-04-29T13:25:23;39.85;;;25.30;;
75504;SDS011;64085;54.974;73.410;2023-04-29T13:27:49;35.00;;;26.15;;
75504;SDS011;64085;54.974;73.410;2023-04-29T13:30:14;33.25;;;23.52;;
75504;SDS011;64085;54.974;73.410;2023-04-29T13:32:40;32.78;;;25.65;;
75504;SDS011;64085;54.974;73.410;2023-04-29T13:35:07;28.67;;;21.92;;
75504;SDS011;64085;54.974;73.410;2023-04-29T13:37:33;28.92;;;22.02;;
75504;SDS011;64085;54.974;73.410;2023-04-29T13:39:59;32.47;;;23.90;;
75504;SDS011;64085;54.974;73.410;2023-04-29T13:42:24;24.92;;;19.42;;
75504;SDS011;64085;54.974;73.410;2023-04-29T13:44:50;31.63;;;21.10;;
75504;SDS011;64085;54.974;73.410;2023-04-29T13:47:17;29.63;;;19.98;;
75504;SDS011;64085;54.974;73.410;2023-04-29T13:49:43;28.40;;;21.00;;
75504;SDS011;64085;54.974;73.410;2023-04-29T13:52:10;28.67;;;21.02;;
75504;SDS011;64085;54.974;73.410;2023-04-29T13:54:36;27.83;;;19.80;;
75504;SDS011;64085;54.974;73.410;2023-04-29T13:57:02;22.73;;;17.58;;
75504;SDS011;64085;54.974;73.410;2023-04-29T13:59:29;28.48;;;20.20;;
75504;SDS011;64085;54.974;73.410;2023-04-29T14:01:56;34.55;;;22.55;;
75504;SDS011;64085;54.974;73.410;2023-04-29T14:04:22;33.60;;;24.70;;
75504;SDS011;64085;54.974;73.410;2023-04-29T14:06:48;32.22;;;23.58;;
75504;SDS011;64085;54.974;73.410;2023-04-29T14:09:14;33.92;;;24.05;;
75504;SDS011;64085;54.974;73.410;2023-04-29T14:11:41;32.75;;;24.48;;
75504;SDS011;64085;54.974;73.410;2023-04-29T14:14:06;28.85;;;22.05;;
75504;SDS011;64085;54.974;73.410;2023-04-29T14:16:32;26.60;;;22.27;;
75504;SDS011;64085;54.974;73.410;2023-04-29T14:18:58;28.00;;;22.98;;
75504;SDS011;64085;54.974;73.410;2023-04-29T14:21:24;24.90;;;19.92;;
75504;SDS011;64085;54.974;73.410;2023-04-29T14:23:50;24.30;;;18.85;;
75504;SDS011;64085;54.974;73.410;2023-04-29T14:26:16;33.42;;;22.02;;
75504;SDS011;64085;54.974;73.410;2023-04-29T14:28:41;32.15;;;22.10;;
75504;SDS011;64085;54.974;73.410;2023-04-29T14:31:07;27.88;;;21.83;;
75504;SDS011;64085;54.974;73.410;2023-04-29T14:33:33;27.48;;;19.85;;
75504;SDS011;64085;54.974;73.410;2023-04-29T14:35:58;31.42;;;20.83;;
75504;SDS011;64085;54.974;73.410;2023-04-29T14:38:27;26.65;;;18.98;;
75504;SDS011;64085;54.974;73.410;2023-04-29T14:40:52;29.48;;;22.83;;
75504;SDS011;64085;54.974;73.410;2023-04-29T14:43:18;28.23;;;19.83;;
75504;SDS011;64085;54.974;73.410;2023-04-29T14:45:44;28.65;;;20.60;;
75504;SDS011;64085;54.974;73.410;2023-04-29T14:48:10;31.45;;;20.63;;
75504;SDS011;64085;54.974;73.410;2023-04-29T14:50:36;27.90;;;20.85;;
75504;SDS011;64085;54.974;73.410;2023-04-29T14:53:01;30.63;;;22.88;;
75504;SDS011;64085;54.974;73.410;2023-04-29T14:55:28;30.20;;;20.13;;
75504;SDS011;64085;54.974;73.410;2023-04-29T14:57:54;31.08;;;26.10;;
75504;SDS011;64085;54.974;73.410;2023-04-29T15:00:19;34.72;;;26.85;;
75504;SDS011;64085;54.974;73.410;2023-04-29T15:02:45;40.67;;;26.58;;
75504;SDS011;64085;54.974;73.410;2023-04-29T15:05:11;37.05;;;27.13;;
75504;SDS011;64085;54.974;73.410;2023-04-29T15:07:36;38.30;;;28.35;;
75504;SDS011;64085;54.974;73.410;2023-04-29T15:10:03;35.17;;;24.67;;
75504;SDS011;64085;54.974;73.410;2023-04-29T15:12:30;35.95;;;27.63;;
75504;SDS011;64085;54.974;73.410;2023-04-29T15:14:56;37.47;;;25.92;;
75504;SDS011;64085;54.974;73.410;2023-04-29T15:17:22;37.83;;;28.95;;
75504;SDS011;64085;54.974;73.410;2023-04-29T15:19:47;36.28;;;25.48;;
75504;SDS011;64085;54.974;73.410;2023-04-29T15:22:13;38.38;;;27.73;;
75504;SDS011;64085;54.974;73.410;2023-04-29T15:24:39;34.00;;;24.55;;
75504;SDS011;64085;54.974;73.410;2023-04-29T15:27:04;35.58;;;24.25;;
75504;SDS011;64085;54.974;73.410;2023-04-29T15:29:30;41.13;;;26.65;;
75504;SDS011;64085;54.974;73.410;2023-04-29T15:31:58;43.03;;;26.27;;
75504;SDS011;64085;54.974;73.410;2023-04-29T15:34:24;40.08;;;23.65;;
75504;SDS011;64085;54.974;73.410;2023-04-29T15:36:50;32.35;;;25.17;;
75504;SDS011;64085;54.974;73.410;2023-04-29T15:39:16;33.28;;;24.83;;
75504;SDS011;64085;54.974;73.410;2023-04-29T15:41:41;36.20;;;26.40;;
75504;SDS011;64085;54.974;73.410;2023-04-29T15:44:07;36.35;;;24.95;;
75504;SDS011;64085;54.974;73.410;2023-04-29T15:46:33;37.15;;;24.27;;
75504;SDS011;64085;54.974;73.410;2023-04-29T15:48:58;29.70;;;23.02;;
75504;SDS011;64085;54.974;73.410;2023-04-29T15:51:25;33.38;;;23.10;;
75504;SDS011;64085;54.974;73.410;2023-04-29T15:53:50;36.33;;;23.20;;
75504;SDS011;64085;54.974;73.410;2023-04-29T15:56:16;31.33;;;23.02;;
75504;SDS011;64085;54.974;73.410;2023-04-29T15:58:42;30.67;;;22.55;;
75504;SDS011;64085;54.974;73.410;2023-04-29T16:01:08;32.42;;;24.30;;
75504;SDS011;64085;54.974;73.410;2023-04-29T16:03:33;29.15;;;22.48;;
75504;SDS011;64085;54.974;73.410;2023-04-29T16:05:59;34.03;;;21.80;;
75504;SDS011;64085;54.974;73.410;2023-04-29T16:08:25;30.02;;;22.50;;
75504;SDS011;64085;54.974;73.410;2023-04-29T16:13:36;30.70;;;21.55;;
75504;SDS011;64085;54.974;73.410;2023-04-29T16:16:01;28.02;;;19.83;;
75504;SDS011;64085;54.974;73.410;2023-04-29T16:18:27;31.15;;;21.73;;
75504;SDS011;64085;54.974;73.410;2023-04-29T16:20:53;30.52;;;21.10;;